Thompson Airport
CYTH : now visible

Airfield :











YOU CAN JOIN US ON...

 
LOGIN :

Register | Disclaimer

   EN    FR    IT 

 









Legend :    VFR   Marginal VFR   IFR   Intensive IFR   Very Intensive IFR
Visi :
Ceiling :
>= 8 km
>= 3000ft
5 to 8 km
1000 to 3000 ft
1500m to 5 km
500 to 1000 ft
800 to 1500m
200 to 500 ft
< 800m
< 200 ft
Symbols :   Thunderstorms  Fog  Heavy snow  Heavy precipitations  Wind > 20 kt






- Airport Elevation : 729 ft
- IATA code : YTH


CYTH - Thompson

CURRENT METAR :
  • 030124Z 30005KT 3/4SM R06/P6000FT/D -SN VV008 M03/M04 A3017 RMK SN8 SLP235

EXPIRED METARs :
  • 030100Z 29006KT 1SM R06/P6000FT/U -SN VV010 M03/M04 A3017 RMK SN8 SLP234
  • 030055Z 29008KT 1SM R06/P6000FT/U -SN VV010 M03/M04 A3017 RMK SN8 SLP236
  • 030031Z 29004KT 3/4SM R06/P6000FT/D -SN OVC004 M02/M03 A3017 RMK SC8 SLP233
  • 030000Z 30004KT 1SM R06/P6000FT/N -SN OVC005 M02/M03 A3016 RMK SC8 SLP231
  • 022306Z 28004KT 3/4SM R06/5000VP6000FT/D -SN VV009 M02/M03 A3017 RMK SN8 SLP235

TAF TAF CYTH
Valid from the 03 at 01:00 until the 03 at 13:00 UTC


030038Z 0301/0313 32004KT 1/2SM SN VV005
PROB40 0301/0310 1/4SM +SHSN VV003
FM031000 03005KT 3/4SM -SN VV006 RMK NXT FCST BY 030700Z



MET'MAP, your aeronautical weather chart ! - Copyright ORBIFLY December 2007 - Disclaimer

ORBIFLY MET'MAP TEAM :

Programming & Development : Alexandra Zaïnal
Concept & original design : Baudouin d'Aumeries
Assistance for programming : Marc-Olivier Méhu
Technical & hardware support : Manuel Goepfert

Contact : metmap@orbifly.com




SOURCES & CREDITS :

   NOAA       Earth
Advisory